createdAt,value
2023-05-19T00:00:02.580Z,8.57
2023-05-19T00:02:39.611Z,8.64
2023-05-19T00:05:08.429Z,8.64
2023-05-19T00:07:38.972Z,8.68
2023-05-19T00:10:07.786Z,8.75
2023-05-19T00:12:37.545Z,8.79
2023-05-19T00:15:06.303Z,8.78
2023-05-19T00:17:34.589Z,8.77
2023-05-19T00:20:07.395Z,8.66
2023-05-19T00:22:36.993Z,8.71
2023-05-19T00:25:06.337Z,8.71
2023-05-19T00:27:34.151Z,8.55
2023-05-19T00:30:09.318Z,8.44
2023-05-19T00:32:37.209Z,8.60
2023-05-19T00:35:05.974Z,8.58
2023-05-19T00:37:33.699Z,8.56
2023-05-19T00:40:01.546Z,8.45
2023-05-19T00:42:29.319Z,8.52
2023-05-19T00:44:57.104Z,8.47
2023-05-19T00:47:24.876Z,8.53
2023-05-19T00:49:52.750Z,8.45
2023-05-19T00:52:20.635Z,8.41
2023-05-19T00:54:50.132Z,8.38
2023-05-19T00:57:18.198Z,8.46
2023-05-19T00:59:46.020Z,8.35
2023-05-19T01:02:15.043Z,8.39
2023-05-19T01:04:44.972Z,8.28
2023-05-19T01:07:12.853Z,8.19
2023-05-19T01:09:40.865Z,8.16
2023-05-19T01:12:09.727Z,8.06
2023-05-19T01:14:37.496Z,8.05
2023-05-19T01:17:14.511Z,7.98
2023-05-19T01:19:51.110Z,7.93
2023-05-19T01:22:46.642Z,7.94
2023-05-19T01:25:50.766Z,7.97
2023-05-19T01:28:54.651Z,7.93
2023-05-19T01:31:25.599Z,7.92
2023-05-19T01:33:54.643Z,7.94
2023-05-19T01:36:23.809Z,7.84
2023-05-19T01:38:55.120Z,7.86
2023-05-19T01:41:24.435Z,7.89
2023-05-19T01:43:54.287Z,7.91
2023-05-19T01:46:24.133Z,7.96
2023-05-19T01:48:53.705Z,7.88
2023-05-19T01:51:21.479Z,8.04
2023-05-19T01:53:50.036Z,8.01
2023-05-19T01:56:31.284Z,8.02
2023-05-19T01:59:17.085Z,8.08
2023-05-19T02:01:56.610Z,8.09
2023-05-19T02:04:51.780Z,8.18
2023-05-19T02:07:46.725Z,8.25
2023-05-19T02:10:28.046Z,8.22
2023-05-19T02:13:01.490Z,8.37
2023-05-19T02:15:39.378Z,8.28
2023-05-19T02:18:11.693Z,8.35
2023-05-19T02:20:40.788Z,8.38
2023-05-19T02:23:08.988Z,8.40
2023-05-19T02:25:36.730Z,8.35
2023-05-19T02:28:04.774Z,8.33
2023-05-19T02:30:33.000Z,8.14
2023-05-19T02:33:01.429Z,8.35
2023-05-19T02:35:29.215Z,8.30
2023-05-19T02:37:57.666Z,8.21
2023-05-19T02:40:26.345Z,8.36
2023-05-19T02:42:54.129Z,8.36
2023-05-19T02:45:21.870Z,8.27
2023-05-19T02:47:49.697Z,8.31
2023-05-19T02:50:19.905Z,8.18
2023-05-19T02:52:48.066Z,8.06
2023-05-19T02:55:17.489Z,8.14
2023-05-19T02:57:45.345Z,8.14
2023-05-19T03:00:13.829Z,8.10
2023-05-19T03:02:44.011Z,8.10
2023-05-19T03:05:12.042Z,8.07
2023-05-19T03:07:39.868Z,8.05
2023-05-19T03:10:08.693Z,7.93
2023-05-19T03:12:36.597Z,7.98
2023-05-19T03:15:04.841Z,8.00
2023-05-19T03:17:34.367Z,8.00
2023-05-19T03:20:02.696Z,7.96
2023-05-19T03:22:30.542Z,8.00
2023-05-19T03:24:58.538Z,7.96
2023-05-19T03:27:27.012Z,7.97
2023-05-19T03:29:55.535Z,7.95
2023-05-19T03:32:24.466Z,7.91
2023-05-19T03:34:52.533Z,7.88
2023-05-19T03:37:20.376Z,7.98
2023-05-19T03:39:48.157Z,7.86
2023-05-19T03:42:16.277Z,7.99
2023-05-19T03:44:44.847Z,7.99
2023-05-19T03:47:13.801Z,7.97
2023-05-19T03:50:02.325Z,7.87
2023-05-19T03:52:48.943Z,7.88
2023-05-19T03:55:30.290Z,7.80
2023-05-19T03:57:58.177Z,7.80
2023-05-19T04:00:25.944Z,7.77
2023-05-19T04:02:53.985Z,7.87
2023-05-19T04:05:21.870Z,7.89
2023-05-19T04:07:49.726Z,7.80
2023-05-19T04:10:20.732Z,7.87
2023-05-19T04:12:48.620Z,7.85
2023-05-19T04:15:17.082Z,7.83
2023-05-19T04:17:46.312Z,7.85
2023-05-19T04:20:14.300Z,7.86
2023-05-19T04:22:42.031Z,7.86
2023-05-19T04:25:10.537Z,7.70
2023-05-19T04:27:42.475Z,7.86
2023-05-19T04:30:10.748Z,7.90
2023-05-19T04:32:39.777Z,7.87
2023-05-19T04:35:08.288Z,7.97
2023-05-19T04:37:37.494Z,8.02
2023-05-19T04:40:10.075Z,8.03
2023-05-19T04:42:41.255Z,8.08
2023-05-19T04:45:12.425Z,8.08
2023-05-19T04:47:43.061Z,8.09
2023-05-19T04:50:11.599Z,8.07
2023-05-19T04:52:39.304Z,8.02
2023-05-19T04:55:07.823Z,8.12
2023-05-19T04:57:37.626Z,8.18
2023-05-19T05:00:09.114Z,8.17
2023-05-19T05:02:46.562Z,8.30
2023-05-19T05:05:14.857Z,8.31
2023-05-19T05:07:43.357Z,8.41
2023-05-19T05:10:12.357Z,8.47
2023-05-19T05:12:41.397Z,8.54
2023-05-19T05:15:10.310Z,8.60
2023-05-19T05:17:39.179Z,8.67
2023-05-19T05:20:08.417Z,8.74
2023-05-19T05:22:38.697Z,8.78
2023-05-19T05:25:09.212Z,8.87
2023-05-19T05:27:37.886Z,8.86
2023-05-19T05:30:08.367Z,8.97
2023-05-19T05:32:36.453Z,9.05
2023-05-19T05:35:09.964Z,9.13
2023-05-19T05:37:38.848Z,9.17
2023-05-19T05:40:07.917Z,9.20
2023-05-19T05:42:36.834Z,9.37
2023-05-19T05:45:05.380Z,9.42
2023-05-19T05:47:33.754Z,9.53
2023-05-19T05:50:02.051Z,9.54
2023-05-19T05:52:31.550Z,9.64
2023-05-19T05:55:01.542Z,9.75
2023-05-19T05:57:35.500Z,9.88
2023-05-19T06:00:10.319Z,9.89
2023-05-19T06:02:47.399Z,9.91
2023-05-19T06:05:17.160Z,9.99
2023-05-19T06:07:46.757Z,10.07
2023-05-19T06:10:21.394Z,10.09
2023-05-19T06:12:50.586Z,10.25
2023-05-19T06:15:18.398Z,10.37
2023-05-19T06:17:59.715Z,10.52
2023-05-19T06:20:27.886Z,10.64
2023-05-19T06:22:56.609Z,10.82
2023-05-19T06:25:27.190Z,10.77
2023-05-19T06:27:56.301Z,11.05
2023-05-19T06:30:24.899Z,11.09
2023-05-19T06:33:07.334Z,10.96
2023-05-19T06:35:35.278Z,10.93
2023-05-19T06:38:03.027Z,11.09
2023-05-19T06:40:31.160Z,11.20
2023-05-19T06:42:59.089Z,11.25
2023-05-19T06:45:49.528Z,11.39
2023-05-19T06:48:17.268Z,11.54
2023-05-19T06:50:45.191Z,11.69
2023-05-19T06:53:14.063Z,11.79
2023-05-19T06:55:54.394Z,11.85
2023-05-19T06:58:24.372Z,11.91
2023-05-19T07:00:52.269Z,12.04
2023-05-19T07:03:20.153Z,12.21
2023-05-19T07:05:48.747Z,12.33
2023-05-19T07:08:16.508Z,12.46
2023-05-19T07:10:44.806Z,12.71
2023-05-19T07:13:14.707Z,12.84
2023-05-19T07:15:42.426Z,12.77
2023-05-19T07:18:10.337Z,12.78
2023-05-19T07:20:38.046Z,12.72
2023-05-19T07:23:05.957Z,12.86
2023-05-19T07:25:33.806Z,12.88
2023-05-19T07:28:01.559Z,13.10
2023-05-19T07:30:30.339Z,13.10
2023-05-19T07:32:58.253Z,13.14
2023-05-19T07:35:26.702Z,13.34
2023-05-19T07:37:54.475Z,13.46
2023-05-19T07:40:22.228Z,13.56
2023-05-19T07:42:50.845Z,13.78
2023-05-19T07:45:18.730Z,13.72
2023-05-19T07:47:46.626Z,13.80
2023-05-19T07:50:14.313Z,14.05
2023-05-19T07:52:42.158Z,13.99
2023-05-19T07:55:09.911Z,14.19
2023-05-19T07:57:37.962Z,14.27
2023-05-19T08:00:07.778Z,14.53
2023-05-19T08:02:39.589Z,14.74
2023-05-19T08:05:09.336Z,14.76
2023-05-19T08:07:37.250Z,14.76
2023-05-19T08:10:05.275Z,14.90
2023-05-19T08:12:33.012Z,14.99
2023-05-19T08:15:01.744Z,15.21
2023-05-19T08:17:29.984Z,15.26
2023-05-19T08:19:57.776Z,15.28
2023-05-19T08:22:26.117Z,15.31
2023-05-19T08:24:54.987Z,15.27
2023-05-19T08:27:22.968Z,15.40
2023-05-19T08:29:51.056Z,15.27
2023-05-19T08:32:18.945Z,15.71
2023-05-19T08:34:46.745Z,15.75
2023-05-19T08:37:14.571Z,15.85
2023-05-19T08:39:42.336Z,15.87
2023-05-19T08:42:10.240Z,15.83
2023-05-19T08:44:40.057Z,15.87
2023-05-19T08:47:12.917Z,15.92
2023-05-19T08:49:52.530Z,16.18
2023-05-19T08:52:36.237Z,16.45
2023-05-19T08:55:21.819Z,15.95
2023-05-19T08:57:50.928Z,16.04
2023-05-19T09:00:20.775Z,16.24
2023-05-19T09:03:00.703Z,16.40
2023-05-19T09:05:29.630Z,16.70
2023-05-19T09:07:57.762Z,16.71
2023-05-19T09:10:27.103Z,16.95
2023-05-19T09:12:55.793Z,16.79
2023-05-19T09:15:30.544Z,16.92
2023-05-19T09:18:14.146Z,16.98
2023-05-19T09:20:44.413Z,16.88
2023-05-19T09:23:17.488Z,17.02
2023-05-19T09:25:53.576Z,17.15
2023-05-19T09:28:30.497Z,17.26
2023-05-19T09:31:07.129Z,17.36
2023-05-19T09:33:42.906Z,17.48
2023-05-19T09:36:12.662Z,17.63
2023-05-19T09:38:40.728Z,17.93
2023-05-19T09:41:09.426Z,18.06
2023-05-19T09:43:37.285Z,18.05
2023-05-19T09:46:12.958Z,17.99
2023-05-19T09:48:42.576Z,17.97
2023-05-19T09:51:11.013Z,17.90
2023-05-19T09:53:39.307Z,17.99
2023-05-19T09:56:09.916Z,18.18
2023-05-19T09:58:39.115Z,18.14
2023-05-19T10:01:07.668Z,18.36
2023-05-19T10:03:36.786Z,18.52
2023-05-19T10:06:05.651Z,18.86
2023-05-19T10:08:35.971Z,19.04
2023-05-19T10:11:03.970Z,19.08
2023-05-19T10:13:35.904Z,19.26
2023-05-19T10:16:03.956Z,19.46
2023-05-19T10:18:35.279Z,19.71
2023-05-19T10:21:04.841Z,19.77
2023-05-19T10:23:33.364Z,19.62
2023-05-19T10:26:05.212Z,19.73
2023-05-19T10:28:39.977Z,19.88
2023-05-19T10:31:13.779Z,19.72
2023-05-19T10:34:07.113Z,19.91
2023-05-19T10:36:49.878Z,19.47
2023-05-19T10:39:29.568Z,19.01
2023-05-19T10:42:41.199Z,19.09
2023-05-19T10:45:24.339Z,19.58
2023-05-19T10:47:52.254Z,19.63
2023-05-19T10:50:20.833Z,19.85
2023-05-19T10:52:56.717Z,20.00
2023-05-19T10:55:56.191Z,20.24
2023-05-19T10:58:50.001Z,20.22
2023-05-19T11:01:20.893Z,19.62
2023-05-19T11:03:54.231Z,19.23
2023-05-19T11:06:25.262Z,19.02
2023-05-19T11:08:56.025Z,18.90
2023-05-19T11:11:24.204Z,18.89
2023-05-19T11:13:55.192Z,18.99
2023-05-19T11:16:31.623Z,19.30
2023-05-19T11:19:00.091Z,19.51
2023-05-19T11:21:55.148Z,19.99
2023-05-19T11:24:40.116Z,20.51
2023-05-19T11:27:33.429Z,20.74
2023-05-19T11:30:06.566Z,20.81
2023-05-19T11:32:39.170Z,20.93
2023-05-19T11:35:08.208Z,21.00
2023-05-19T11:37:37.019Z,21.14
2023-05-19T11:40:09.418Z,21.28
2023-05-19T11:42:37.565Z,20.89
2023-05-19T11:45:06.454Z,20.11
2023-05-19T11:47:46.026Z,19.83
2023-05-19T11:50:22.049Z,19.96
2023-05-19T11:52:54.943Z,20.32
2023-05-19T11:55:23.028Z,20.47
2023-05-19T11:58:05.840Z,20.63
2023-05-19T12:00:40.834Z,20.90
2023-05-19T12:03:09.841Z,20.93
2023-05-19T12:05:45.503Z,21.04
2023-05-19T12:08:13.872Z,20.93
2023-05-19T12:10:41.813Z,21.20
2023-05-19T12:13:10.587Z,21.49
2023-05-19T12:15:40.870Z,21.54
2023-05-19T12:18:09.070Z,21.47
2023-05-19T12:20:37.394Z,21.71
2023-05-19T12:23:05.793Z,21.99
2023-05-19T12:25:34.214Z,21.72
2023-05-19T12:28:05.737Z,21.73
2023-05-19T12:30:34.696Z,21.72
2023-05-19T12:33:03.739Z,21.57
2023-05-19T12:35:36.381Z,21.41
2023-05-19T12:38:05.855Z,21.26
2023-05-19T12:40:36.331Z,21.53
2023-05-19T12:43:05.585Z,21.01
2023-05-19T12:45:37.338Z,21.01
2023-05-19T12:48:07.012Z,20.77
2023-05-19T12:50:37.310Z,21.00
2023-05-19T12:53:10.653Z,21.54
2023-05-19T12:55:43.885Z,21.80
2023-05-19T12:58:12.352Z,22.21
2023-05-19T13:00:47.524Z,22.36
2023-05-19T13:03:20.625Z,22.46
2023-05-19T13:05:51.099Z,22.76
2023-05-19T13:08:25.997Z,22.77
2023-05-19T13:10:54.667Z,22.10
2023-05-19T13:13:22.400Z,21.95
2023-05-19T13:15:50.192Z,21.69
2023-05-19T13:18:18.569Z,21.63
2023-05-19T13:20:47.421Z,21.68
2023-05-19T13:23:16.233Z,21.41
2023-05-19T13:25:44.351Z,21.09
2023-05-19T13:28:12.846Z,20.70
2023-05-19T13:30:41.994Z,20.48
2023-05-19T13:33:09.959Z,20.82
2023-05-19T13:35:38.295Z,21.51
2023-05-19T13:38:10.063Z,21.96
2023-05-19T13:40:39.818Z,22.44
2023-05-19T13:43:08.811Z,22.14
2023-05-19T13:45:37.243Z,21.99
2023-05-19T13:48:07.356Z,22.70
2023-05-19T13:50:35.711Z,23.56
2023-05-19T13:53:03.973Z,23.96
2023-05-19T13:55:32.623Z,24.59
2023-05-19T13:58:00.391Z,25.14
2023-05-19T14:00:28.580Z,24.60
2023-05-19T14:02:56.807Z,23.53
2023-05-19T14:05:24.685Z,23.71
2023-05-19T14:07:53.408Z,23.85
2023-05-19T14:10:21.421Z,23.85
2023-05-19T14:13:18.350Z,24.42
2023-05-19T14:15:38.244Z,24.29
2023-05-19T14:18:07.064Z,23.80
2023-05-19T14:20:35.313Z,23.95
2023-05-19T14:23:03.501Z,22.69
2023-05-19T14:25:31.230Z,21.39
2023-05-19T14:27:59.088Z,20.95
2023-05-19T14:30:27.011Z,21.56
2023-05-19T14:32:54.979Z,21.89
2023-05-19T14:35:23.206Z,21.40
2023-05-19T14:37:51.649Z,20.89
2023-05-19T14:40:19.582Z,20.31
2023-05-19T14:42:47.335Z,19.92
2023-05-19T14:45:15.636Z,19.98
2023-05-19T14:47:43.546Z,19.85
2023-05-19T14:50:11.770Z,20.00
2023-05-19T14:52:39.544Z,20.07
2023-05-19T14:55:07.816Z,20.16
2023-05-19T14:57:35.884Z,20.01
2023-05-19T15:00:03.981Z,19.80
2023-05-19T15:02:31.794Z,19.56
2023-05-19T15:05:00.951Z,19.56
2023-05-19T15:07:28.764Z,20.02
2023-05-19T15:09:56.537Z,20.34
2023-05-19T15:12:24.334Z,20.45
2023-05-19T15:14:52.080Z,20.07
2023-05-19T15:17:19.893Z,19.48
2023-05-19T15:19:47.747Z,19.24
2023-05-19T15:22:15.654Z,19.12
2023-05-19T15:24:43.429Z,19.37
2023-05-19T15:27:11.510Z,19.46
2023-05-19T15:29:39.242Z,19.45
2023-05-19T15:32:07.826Z,19.74
2023-05-19T15:34:35.520Z,19.46
2023-05-19T15:37:03.313Z,19.44
2023-05-19T15:39:31.552Z,19.64
2023-05-19T15:41:59.616Z,19.78
2023-05-19T15:44:29.022Z,19.78
2023-05-19T15:46:57.001Z,19.10
2023-05-19T15:49:25.325Z,18.94
2023-05-19T15:51:53.069Z,19.07
2023-05-19T15:54:20.794Z,19.11
2023-05-19T15:56:48.567Z,18.87
2023-05-19T15:59:16.249Z,18.70
2023-05-19T16:01:44.104Z,18.57
2023-05-19T16:04:11.868Z,18.51
2023-05-19T16:06:39.586Z,18.28
2023-05-19T16:09:07.404Z,18.33
2023-05-19T16:11:35.115Z,18.33
2023-05-19T16:14:02.901Z,18.28
2023-05-19T16:16:30.680Z,18.24
2023-05-19T16:19:01.050Z,18.40
2023-05-19T16:21:28.863Z,18.20
2023-05-19T16:23:56.541Z,18.12
2023-05-19T16:26:24.256Z,18.45
2023-05-19T16:28:52.174Z,18.62
2023-05-19T16:31:20.043Z,18.53
2023-05-19T16:33:47.990Z,18.49
2023-05-19T16:36:15.769Z,18.54
2023-05-19T16:38:43.486Z,18.63
2023-05-19T16:41:14.244Z,18.56
2023-05-19T16:43:42.106Z,18.47
2023-05-19T16:46:12.212Z,18.43
2023-05-19T16:48:40.224Z,18.37
2023-05-19T16:51:07.986Z,18.42
2023-05-19T16:53:35.808Z,18.57
2023-05-19T16:56:03.863Z,18.37
2023-05-19T16:58:31.778Z,18.31
2023-05-19T17:00:59.596Z,18.32
2023-05-19T17:03:27.506Z,18.38
2023-05-19T17:05:55.366Z,18.30
2023-05-19T17:08:23.175Z,18.29
2023-05-19T17:10:53.998Z,18.51
2023-05-19T17:13:21.855Z,18.42
2023-05-19T17:15:52.675Z,18.33
2023-05-19T17:18:20.564Z,18.23
2023-05-19T17:20:48.281Z,18.01
2023-05-19T17:23:16.225Z,17.83
2023-05-19T17:25:43.999Z,17.72
2023-05-19T17:28:11.758Z,17.80
2023-05-19T17:30:42.570Z,17.84
2023-05-19T17:33:10.953Z,17.60
2023-05-19T17:35:38.834Z,17.62
2023-05-19T17:38:06.839Z,17.89
2023-05-19T17:40:35.697Z,18.14
2023-05-19T17:43:03.720Z,18.19
2023-05-19T17:45:31.457Z,18.22
2023-05-19T17:47:59.249Z,18.08
2023-05-19T17:50:27.293Z,18.10
2023-05-19T17:52:56.198Z,18.02
2023-05-19T17:55:29.698Z,17.89
2023-05-19T17:57:58.433Z,17.89
2023-05-19T18:00:26.665Z,17.66
2023-05-19T18:02:56.951Z,17.63
2023-05-19T18:05:25.784Z,17.40
2023-05-19T18:07:57.156Z,17.48
2023-05-19T18:10:27.590Z,17.55
2023-05-19T18:12:55.512Z,17.40
2023-05-19T18:15:24.109Z,17.09
2023-05-19T18:17:51.882Z,17.00
2023-05-19T18:20:19.810Z,16.80
2023-05-19T18:22:47.625Z,16.77
2023-05-19T18:25:16.977Z,16.80
2023-05-19T18:27:47.673Z,16.78
2023-05-19T18:30:15.840Z,16.73
2023-05-19T18:32:43.620Z,16.55
2023-05-19T18:35:11.417Z,16.66
2023-05-19T18:37:39.294Z,16.66
2023-05-19T18:40:08.204Z,16.46
2023-05-19T18:42:35.956Z,16.56
2023-05-19T18:45:04.262Z,16.50
2023-05-19T18:47:31.980Z,16.34
2023-05-19T18:50:00.163Z,16.14
2023-05-19T18:52:28.709Z,16.06
2023-05-19T18:54:56.475Z,16.04
2023-05-19T18:57:24.196Z,15.96
2023-05-19T18:59:51.993Z,15.70
2023-05-19T19:02:19.686Z,15.85
2023-05-19T19:04:47.514Z,15.64
2023-05-19T19:07:15.382Z,15.56
2023-05-19T19:09:43.945Z,15.60
2023-05-19T19:12:11.741Z,15.43
2023-05-19T19:14:39.589Z,15.34
2023-05-19T19:17:07.371Z,15.35
2023-05-19T19:19:35.159Z,15.37
2023-05-19T19:22:03.177Z,15.17
2023-05-19T19:24:32.163Z,14.95
2023-05-19T19:26:59.892Z,14.93
2023-05-19T19:29:28.404Z,14.92
2023-05-19T19:31:56.368Z,14.92
2023-05-19T19:34:24.173Z,14.79
2023-05-19T19:36:52.188Z,14.85
2023-05-19T19:39:19.953Z,14.86
2023-05-19T19:41:47.698Z,14.82
2023-05-19T19:44:15.587Z,14.73
2023-05-19T19:46:43.371Z,14.56
2023-05-19T19:49:11.230Z,14.40
2023-05-19T19:51:39.026Z,14.34
2023-05-19T19:54:06.814Z,14.22
2023-05-19T19:56:34.592Z,14.15
2023-05-19T19:59:02.320Z,14.11
2023-05-19T20:01:30.153Z,14.03
2023-05-19T20:03:58.081Z,13.95
2023-05-19T20:06:26.116Z,13.97
2023-05-19T20:08:53.953Z,14.03
2023-05-19T20:11:23.831Z,14.05
2023-05-19T20:13:52.224Z,13.95
2023-05-19T20:16:20.287Z,13.85
2023-05-19T20:18:48.111Z,13.91
2023-05-19T20:21:16.123Z,13.79
2023-05-19T20:23:43.973Z,13.72
2023-05-19T20:26:16.851Z,13.51
2023-05-19T20:28:45.256Z,13.67
2023-05-19T20:31:13.029Z,13.46
2023-05-19T20:33:47.135Z,13.57
2023-05-19T20:36:15.438Z,13.46
2023-05-19T20:38:43.237Z,13.40
2023-05-19T20:41:10.950Z,13.38
2023-05-19T20:43:38.660Z,13.34
2023-05-19T20:46:06.682Z,13.36
2023-05-19T20:48:34.662Z,13.21
2023-05-19T20:51:02.475Z,13.29
2023-05-19T20:53:30.202Z,13.15
2023-05-19T20:55:58.259Z,13.19
2023-05-19T20:58:30.129Z,13.27
2023-05-19T21:00:58.304Z,13.16
2023-05-19T21:03:29.030Z,12.95
2023-05-19T21:05:59.276Z,13.19
2023-05-19T21:08:28.591Z,13.17
2023-05-19T21:10:56.393Z,13.02
2023-05-19T21:13:24.714Z,12.95
2023-05-19T21:15:53.382Z,13.02
2023-05-19T21:18:21.441Z,13.02
2023-05-19T21:20:50.897Z,13.04
2023-05-19T21:23:18.974Z,13.08
2023-05-19T21:25:46.856Z,13.04
2023-05-19T21:28:14.638Z,12.82
2023-05-19T21:30:42.636Z,13.03
2023-05-19T21:33:11.673Z,13.00
2023-05-19T21:35:39.744Z,12.92
2023-05-19T21:38:22.037Z,12.89
2023-05-19T21:40:51.394Z,12.88
2023-05-19T21:43:19.670Z,12.87
2023-05-19T21:45:47.462Z,12.84
2023-05-19T21:48:15.483Z,12.77
2023-05-19T21:50:43.410Z,12.80
2023-05-19T21:53:11.520Z,12.66
2023-05-19T21:55:39.428Z,12.74
2023-05-19T21:58:07.355Z,12.77
2023-05-19T22:00:37.058Z,12.79
2023-05-19T22:03:05.274Z,12.76
2023-05-19T22:05:35.464Z,12.80
2023-05-19T22:08:03.988Z,12.62
2023-05-19T22:10:33.105Z,12.72
2023-05-19T22:13:12.849Z,12.68
2023-05-19T22:15:41.434Z,12.68
2023-05-19T22:18:09.421Z,12.66
2023-05-19T22:20:37.878Z,12.64
2023-05-19T22:23:05.945Z,12.57
2023-05-19T22:25:34.032Z,12.68
2023-05-19T22:28:01.817Z,12.77
2023-05-19T22:30:29.647Z,12.81
2023-05-19T22:32:57.434Z,12.80
2023-05-19T22:35:25.476Z,12.80
2023-05-19T22:37:53.260Z,12.76
2023-05-19T22:40:21.068Z,12.76
2023-05-19T22:42:48.796Z,12.76
2023-05-19T22:45:16.800Z,12.71
2023-05-19T22:47:44.569Z,12.67
2023-05-19T22:50:12.462Z,12.66
2023-05-19T22:52:40.281Z,12.67
2023-05-19T22:55:08.619Z,12.65
2023-05-19T22:57:36.490Z,12.61
2023-05-19T23:00:05.139Z,12.63
2023-05-19T23:02:33.171Z,12.61
2023-05-19T23:05:01.045Z,12.64
2023-05-19T23:07:28.757Z,12.61
2023-05-19T23:09:56.525Z,12.55
2023-05-19T23:12:24.389Z,12.45
2023-05-19T23:14:53.230Z,12.52
2023-05-19T23:17:20.989Z,12.48
2023-05-19T23:19:48.762Z,12.38
2023-05-19T23:22:16.625Z,12.36
2023-05-19T23:24:44.419Z,12.40
2023-05-19T23:27:12.226Z,12.37
2023-05-19T23:29:39.947Z,12.48
2023-05-19T23:32:08.093Z,12.49
2023-05-19T23:34:35.814Z,12.43
2023-05-19T23:37:03.597Z,12.41
2023-05-19T23:39:31.289Z,12.32
2023-05-19T23:41:59.084Z,12.27
2023-05-19T23:44:27.332Z,12.39
2023-05-19T23:46:55.056Z,12.32
2023-05-19T23:49:22.824Z,12.29
2023-05-19T23:51:50.705Z,12.32
2023-05-19T23:54:18.435Z,12.27
2023-05-19T23:56:46.217Z,12.23
2023-05-19T23:59:13.910Z,12.15
